sensor_id;sensor_type;location;lat;lon;timestamp;P1;durP1;ratioP1;P2;durP2;ratioP2
9783;SDS011;4931;44.874;-1.092;2023-03-11T00:00:31;52.40;;;8.32;;
9783;SDS011;4931;44.874;-1.092;2023-03-11T00:02:59;54.38;;;7.57;;
9783;SDS011;4931;44.874;-1.092;2023-03-11T00:05:27;46.50;;;7.60;;
9783;SDS011;4931;44.874;-1.092;2023-03-11T00:07:54;47.35;;;8.18;;
9783;SDS011;4931;44.874;-1.092;2023-03-11T00:10:21;53.35;;;8.38;;
9783;SDS011;4931;44.874;-1.092;2023-03-11T00:12:50;54.85;;;8.10;;
9783;SDS011;4931;44.874;-1.092;2023-03-11T00:15:16;46.80;;;7.22;;
9783;SDS011;4931;44.874;-1.092;2023-03-11T00:17:42;51.10;;;7.88;;
9783;SDS011;4931;44.874;-1.092;2023-03-11T00:20:10;57.70;;;8.30;;
9783;SDS011;4931;44.874;-1.092;2023-03-11T00:22:41;53.72;;;8.32;;
9783;SDS011;4931;44.874;-1.092;2023-03-11T00:25:07;55.72;;;8.50;;
9783;SDS011;4931;44.874;-1.092;2023-03-11T00:27:35;62.70;;;8.93;;
9783;SDS011;4931;44.874;-1.092;2023-03-11T00:30:01;51.15;;;7.57;;
9783;SDS011;4931;44.874;-1.092;2023-03-11T00:32:27;49.97;;;8.35;;
9783;SDS011;4931;44.874;-1.092;2023-03-11T00:34:52;62.60;;;8.65;;
9783;SDS011;4931;44.874;-1.092;2023-03-11T00:37:18;48.83;;;7.55;;
9783;SDS011;4931;44.874;-1.092;2023-03-11T00:39:43;50.55;;;7.60;;
9783;SDS011;4931;44.874;-1.092;2023-03-11T00:42:09;54.58;;;8.45;;
9783;SDS011;4931;44.874;-1.092;2023-03-11T00:44:34;53.47;;;7.57;;
9783;SDS011;4931;44.874;-1.092;2023-03-11T00:47:00;49.58;;;7.68;;
9783;SDS011;4931;44.874;-1.092;2023-03-11T00:49:25;46.33;;;7.55;;
9783;SDS011;4931;44.874;-1.092;2023-03-11T00:51:51;57.13;;;7.78;;
9783;SDS011;4931;44.874;-1.092;2023-03-11T00:54:16;51.42;;;7.68;;
9783;SDS011;4931;44.874;-1.092;2023-03-11T00:56:42;53.60;;;7.70;;
9783;SDS011;4931;44.874;-1.092;2023-03-11T00:59:08;47.88;;;7.57;;
9783;SDS011;4931;44.874;-1.092;2023-03-11T01:01:33;47.42;;;7.43;;
9783;SDS011;4931;44.874;-1.092;2023-03-11T01:03:59;45.78;;;7.40;;
9783;SDS011;4931;44.874;-1.092;2023-03-11T01:06:24;60.45;;;8.18;;
9783;SDS011;4931;44.874;-1.092;2023-03-11T01:08:50;42.28;;;6.82;;
9783;SDS011;4931;44.874;-1.092;2023-03-11T01:11:15;46.38;;;7.38;;
9783;SDS011;4931;44.874;-1.092;2023-03-11T01:13:40;55.97;;;8.63;;
9783;SDS011;4931;44.874;-1.092;2023-03-11T01:16:06;46.80;;;6.80;;
9783;SDS011;4931;44.874;-1.092;2023-03-11T01:18:33;58.95;;;7.43;;
9783;SDS011;4931;44.874;-1.092;2023-03-11T01:20:59;60.35;;;7.90;;
9783;SDS011;4931;44.874;-1.092;2023-03-11T01:23:25;52.97;;;7.93;;
9783;SDS011;4931;44.874;-1.092;2023-03-11T01:25:50;51.40;;;7.78;;
9783;SDS011;4931;44.874;-1.092;2023-03-11T01:28:16;56.45;;;8.35;;
9783;SDS011;4931;44.874;-1.092;2023-03-11T01:30:42;53.97;;;8.38;;
9783;SDS011;4931;44.874;-1.092;2023-03-11T01:33:12;49.13;;;7.95;;
9783;SDS011;4931;44.874;-1.092;2023-03-11T01:35:40;53.40;;;7.70;;
9783;SDS011;4931;44.874;-1.092;2023-03-11T01:38:06;59.50;;;7.88;;
9783;SDS011;4931;44.874;-1.092;2023-03-11T01:43:03;61.85;;;8.25;;
9783;SDS011;4931;44.874;-1.092;2023-03-11T01:46:32;52.75;;;7.75;;
9783;SDS011;4931;44.874;-1.092;2023-03-11T01:48:26;60.25;;;8.02;;
9783;SDS011;4931;44.874;-1.092;2023-03-11T01:50:52;60.22;;;8.85;;
9783;SDS011;4931;44.874;-1.092;2023-03-11T01:53:18;55.67;;;8.20;;
9783;SDS011;4931;44.874;-1.092;2023-03-11T01:55:45;57.17;;;9.05;;
9783;SDS011;4931;44.874;-1.092;2023-03-11T01:58:13;52.95;;;8.43;;
9783;SDS011;4931;44.874;-1.092;2023-03-11T02:00:42;51.15;;;8.05;;
9783;SDS011;4931;44.874;-1.092;2023-03-11T02:03:10;71.60;;;8.85;;
9783;SDS011;4931;44.874;-1.092;2023-03-11T02:05:41;58.63;;;8.52;;
9783;SDS011;4931;44.874;-1.092;2023-03-11T02:08:07;50.47;;;8.40;;
9783;SDS011;4931;44.874;-1.092;2023-03-11T02:10:33;62.95;;;9.25;;
9783;SDS011;4931;44.874;-1.092;2023-03-11T02:12:58;60.92;;;9.10;;
9783;SDS011;4931;44.874;-1.092;2023-03-11T02:15:24;70.65;;;10.20;;
9783;SDS011;4931;44.874;-1.092;2023-03-11T02:17:50;47.63;;;6.90;;
9783;SDS011;4931;44.874;-1.092;2023-03-11T02:20:24;63.80;;;8.52;;
9783;SDS011;4931;44.874;-1.092;2023-03-11T02:22:58;53.00;;;8.48;;
9783;SDS011;4931;44.874;-1.092;2023-03-11T02:25:36;56.85;;;7.82;;
9783;SDS011;4931;44.874;-1.092;2023-03-11T02:28:09;59.05;;;7.63;;
9783;SDS011;4931;44.874;-1.092;2023-03-11T02:30:38;56.55;;;8.05;;
9783;SDS011;4931;44.874;-1.092;2023-03-11T02:33:06;51.10;;;8.25;;
9783;SDS011;4931;44.874;-1.092;2023-03-11T02:35:32;62.33;;;8.63;;
9783;SDS011;4931;44.874;-1.092;2023-03-11T02:37:58;52.83;;;8.38;;
9783;SDS011;4931;44.874;-1.092;2023-03-11T02:42:52;59.95;;;8.52;;
9783;SDS011;4931;44.874;-1.092;2023-03-11T02:45:21;66.90;;;8.93;;
9783;SDS011;4931;44.874;-1.092;2023-03-11T02:47:50;64.30;;;9.20;;
9783;SDS011;4931;44.874;-1.092;2023-03-11T02:50:18;55.28;;;8.43;;
9783;SDS011;4931;44.874;-1.092;2023-03-11T02:52:46;64.22;;;9.20;;
9783;SDS011;4931;44.874;-1.092;2023-03-11T02:55:12;60.63;;;8.80;;
9783;SDS011;4931;44.874;-1.092;2023-03-11T02:57:40;56.38;;;8.25;;
9783;SDS011;4931;44.874;-1.092;2023-03-11T03:00:06;70.90;;;9.38;;
9783;SDS011;4931;44.874;-1.092;2023-03-11T03:02:37;57.15;;;8.88;;
9783;SDS011;4931;44.874;-1.092;2023-03-11T03:05:03;66.93;;;9.25;;
9783;SDS011;4931;44.874;-1.092;2023-03-11T03:07:29;65.80;;;9.13;;
9783;SDS011;4931;44.874;-1.092;2023-03-11T03:09:54;72.50;;;10.45;;
9783;SDS011;4931;44.874;-1.092;2023-03-11T03:12:20;65.15;;;8.70;;
9783;SDS011;4931;44.874;-1.092;2023-03-11T03:14:46;64.53;;;9.25;;
9783;SDS011;4931;44.874;-1.092;2023-03-11T03:17:11;67.53;;;9.13;;
9783;SDS011;4931;44.874;-1.092;2023-03-11T03:19:37;68.53;;;10.00;;
9783;SDS011;4931;44.874;-1.092;2023-03-11T03:22:02;67.30;;;9.52;;
9783;SDS011;4931;44.874;-1.092;2023-03-11T03:24:28;56.08;;;8.57;;
9783;SDS011;4931;44.874;-1.092;2023-03-11T03:26:53;64.70;;;8.93;;
9783;SDS011;4931;44.874;-1.092;2023-03-11T03:29:19;57.28;;;8.23;;
9783;SDS011;4931;44.874;-1.092;2023-03-11T03:31:44;57.97;;;8.52;;
9783;SDS011;4931;44.874;-1.092;2023-03-11T03:34:10;71.60;;;9.93;;
9783;SDS011;4931;44.874;-1.092;2023-03-11T03:36:35;66.10;;;10.00;;
9783;SDS011;4931;44.874;-1.092;2023-03-11T03:39:01;79.07;;;10.85;;
9783;SDS011;4931;44.874;-1.092;2023-03-11T03:41:28;59.75;;;9.57;;
9783;SDS011;4931;44.874;-1.092;2023-03-11T03:43:53;69.18;;;10.20;;
9783;SDS011;4931;44.874;-1.092;2023-03-11T03:46:19;61.85;;;10.40;;
9783;SDS011;4931;44.874;-1.092;2023-03-11T03:48:45;66.82;;;9.52;;
9783;SDS011;4931;44.874;-1.092;2023-03-11T03:51:11;65.60;;;9.95;;
9783;SDS011;4931;44.874;-1.092;2023-03-11T03:53:37;70.78;;;9.60;;
9783;SDS011;4931;44.874;-1.092;2023-03-11T03:56:04;74.72;;;10.13;;
9783;SDS011;4931;44.874;-1.092;2023-03-11T03:58:30;71.70;;;10.40;;
9783;SDS011;4931;44.874;-1.092;2023-03-11T04:00:56;67.32;;;9.60;;
9783;SDS011;4931;44.874;-1.092;2023-03-11T04:03:23;72.22;;;9.85;;
9783;SDS011;4931;44.874;-1.092;2023-03-11T04:05:49;69.38;;;9.68;;
9783;SDS011;4931;44.874;-1.092;2023-03-11T04:08:15;76.18;;;9.55;;
9783;SDS011;4931;44.874;-1.092;2023-03-11T04:10:41;60.42;;;9.57;;
9783;SDS011;4931;44.874;-1.092;2023-03-11T04:13:06;67.13;;;10.73;;
9783;SDS011;4931;44.874;-1.092;2023-03-11T04:15:32;59.85;;;9.65;;
9783;SDS011;4931;44.874;-1.092;2023-03-11T04:17:57;58.17;;;10.30;;
9783;SDS011;4931;44.874;-1.092;2023-03-11T04:20:23;64.10;;;10.25;;
9783;SDS011;4931;44.874;-1.092;2023-03-11T04:22:48;73.20;;;9.95;;
9783;SDS011;4931;44.874;-1.092;2023-03-11T04:25:14;60.55;;;10.05;;
9783;SDS011;4931;44.874;-1.092;2023-03-11T04:27:39;61.35;;;9.65;;
9783;SDS011;4931;44.874;-1.092;2023-03-11T04:30:10;68.40;;;9.53;;
9783;SDS011;4931;44.874;-1.092;2023-03-11T04:32:36;71.07;;;10.35;;
9783;SDS011;4931;44.874;-1.092;2023-03-11T04:35:01;71.00;;;9.45;;
9783;SDS011;4931;44.874;-1.092;2023-03-11T04:37:27;65.63;;;9.55;;
9783;SDS011;4931;44.874;-1.092;2023-03-11T04:39:54;70.68;;;10.27;;
9783;SDS011;4931;44.874;-1.092;2023-03-11T04:42:19;60.97;;;10.07;;
9783;SDS011;4931;44.874;-1.092;2023-03-11T04:44:45;68.20;;;9.02;;
9783;SDS011;4931;44.874;-1.092;2023-03-11T04:47:10;66.15;;;9.38;;
9783;SDS011;4931;44.874;-1.092;2023-03-11T04:49:36;69.75;;;10.15;;
9783;SDS011;4931;44.874;-1.092;2023-03-11T04:52:01;59.08;;;9.45;;
9783;SDS011;4931;44.874;-1.092;2023-03-11T04:54:27;63.38;;;9.15;;
9783;SDS011;4931;44.874;-1.092;2023-03-11T04:56:53;62.83;;;9.65;;
9783;SDS011;4931;44.874;-1.092;2023-03-11T04:59:18;57.80;;;10.70;;
9783;SDS011;4931;44.874;-1.092;2023-03-11T05:01:43;64.43;;;9.48;;
9783;SDS011;4931;44.874;-1.092;2023-03-11T05:04:09;69.90;;;10.18;;
9783;SDS011;4931;44.874;-1.092;2023-03-11T05:06:35;64.28;;;10.98;;
9783;SDS011;4931;44.874;-1.092;2023-03-11T05:09:01;66.72;;;9.35;;
9783;SDS011;4931;44.874;-1.092;2023-03-11T05:11:28;73.75;;;9.38;;
9783;SDS011;4931;44.874;-1.092;2023-03-11T05:13:54;63.55;;;11.02;;
9783;SDS011;4931;44.874;-1.092;2023-03-11T05:16:20;64.70;;;9.90;;
9783;SDS011;4931;44.874;-1.092;2023-03-11T05:18:45;68.82;;;9.50;;
9783;SDS011;4931;44.874;-1.092;2023-03-11T05:21:11;60.92;;;9.38;;
9783;SDS011;4931;44.874;-1.092;2023-03-11T05:23:36;70.80;;;8.95;;
9783;SDS011;4931;44.874;-1.092;2023-03-11T05:26:02;69.05;;;9.05;;
9783;SDS011;4931;44.874;-1.092;2023-03-11T05:28:27;62.45;;;9.80;;
9783;SDS011;4931;44.874;-1.092;2023-03-11T05:30:53;65.30;;;9.43;;
9783;SDS011;4931;44.874;-1.092;2023-03-11T05:33:18;45.75;;;7.97;;
9783;SDS011;4931;44.874;-1.092;2023-03-11T05:35:44;59.90;;;8.35;;
9783;SDS011;4931;44.874;-1.092;2023-03-11T05:38:10;55.28;;;9.65;;
9783;SDS011;4931;44.874;-1.092;2023-03-11T05:40:35;45.33;;;8.15;;
9783;SDS011;4931;44.874;-1.092;2023-03-11T05:43:01;58.50;;;9.57;;
9783;SDS011;4931;44.874;-1.092;2023-03-11T05:45:26;54.05;;;10.57;;
9783;SDS011;4931;44.874;-1.092;2023-03-11T05:47:52;53.03;;;9.25;;
9783;SDS011;4931;44.874;-1.092;2023-03-11T05:50:17;45.40;;;8.75;;
9783;SDS011;4931;44.874;-1.092;2023-03-11T05:52:43;47.33;;;8.85;;
9783;SDS011;4931;44.874;-1.092;2023-03-11T05:55:09;45.10;;;8.02;;
9783;SDS011;4931;44.874;-1.092;2023-03-11T05:57:36;44.72;;;8.10;;
9783;SDS011;4931;44.874;-1.092;2023-03-11T06:00:04;44.40;;;7.85;;
9783;SDS011;4931;44.874;-1.092;2023-03-11T06:02:36;42.47;;;7.20;;
9783;SDS011;4931;44.874;-1.092;2023-03-11T06:05:05;42.38;;;7.13;;
9783;SDS011;4931;44.874;-1.092;2023-03-11T06:07:32;40.08;;;7.22;;
9783;SDS011;4931;44.874;-1.092;2023-03-11T06:09:59;38.75;;;7.35;;
9783;SDS011;4931;44.874;-1.092;2023-03-11T06:12:25;34.05;;;6.35;;
9783;SDS011;4931;44.874;-1.092;2023-03-11T06:14:52;30.52;;;6.20;;
9783;SDS011;4931;44.874;-1.092;2023-03-11T06:17:18;36.28;;;6.95;;
9783;SDS011;4931;44.874;-1.092;2023-03-11T06:19:43;27.13;;;6.13;;
9783;SDS011;4931;44.874;-1.092;2023-03-11T06:22:09;31.75;;;5.63;;
9783;SDS011;4931;44.874;-1.092;2023-03-11T06:24:34;30.30;;;6.47;;
9783;SDS011;4931;44.874;-1.092;2023-03-11T06:27:00;26.70;;;5.85;;
9783;SDS011;4931;44.874;-1.092;2023-03-11T06:29:26;43.88;;;7.25;;
9783;SDS011;4931;44.874;-1.092;2023-03-11T06:31:53;31.73;;;6.55;;
9783;SDS011;4931;44.874;-1.092;2023-03-11T06:34:18;39.15;;;7.25;;
9783;SDS011;4931;44.874;-1.092;2023-03-11T06:36:43;42.58;;;7.25;;
9783;SDS011;4931;44.874;-1.092;2023-03-11T06:39:11;40.17;;;6.82;;
9783;SDS011;4931;44.874;-1.092;2023-03-11T06:41:38;46.22;;;7.70;;
9783;SDS011;4931;44.874;-1.092;2023-03-11T06:44:04;47.90;;;6.47;;
9783;SDS011;4931;44.874;-1.092;2023-03-11T06:46:30;46.25;;;7.25;;
9783;SDS011;4931;44.874;-1.092;2023-03-11T06:48:55;46.40;;;7.45;;
9783;SDS011;4931;44.874;-1.092;2023-03-11T06:51:21;44.85;;;7.47;;
9783;SDS011;4931;44.874;-1.092;2023-03-11T06:53:47;47.63;;;8.00;;
9783;SDS011;4931;44.874;-1.092;2023-03-11T06:56:19;55.03;;;8.18;;
9783;SDS011;4931;44.874;-1.092;2023-03-11T06:58:46;52.22;;;8.82;;
9783;SDS011;4931;44.874;-1.092;2023-03-11T07:01:19;43.15;;;7.68;;
9783;SDS011;4931;44.874;-1.092;2023-03-11T07:03:46;47.88;;;7.15;;
9783;SDS011;4931;44.874;-1.092;2023-03-11T07:06:14;41.53;;;7.40;;
9783;SDS011;4931;44.874;-1.092;2023-03-11T07:08:45;45.42;;;7.80;;
9783;SDS011;4931;44.874;-1.092;2023-03-11T07:11:13;34.90;;;6.03;;
9783;SDS011;4931;44.874;-1.092;2023-03-11T07:13:41;38.00;;;5.93;;
9783;SDS011;4931;44.874;-1.092;2023-03-11T07:16:08;40.58;;;6.35;;
9783;SDS011;4931;44.874;-1.092;2023-03-11T07:18:36;42.50;;;6.38;;
9783;SDS011;4931;44.874;-1.092;2023-03-11T07:21:03;42.50;;;6.47;;
9783;SDS011;4931;44.874;-1.092;2023-03-11T07:23:30;40.67;;;6.05;;
9783;SDS011;4931;44.874;-1.092;2023-03-11T07:25:57;38.53;;;5.60;;
9783;SDS011;4931;44.874;-1.092;2023-03-11T07:28:23;39.47;;;5.47;;
9783;SDS011;4931;44.874;-1.092;2023-03-11T07:30:49;38.85;;;5.82;;
9783;SDS011;4931;44.874;-1.092;2023-03-11T07:33:15;39.70;;;5.82;;
9783;SDS011;4931;44.874;-1.092;2023-03-11T07:35:41;33.55;;;5.10;;
9783;SDS011;4931;44.874;-1.092;2023-03-11T07:38:07;37.58;;;6.00;;
9783;SDS011;4931;44.874;-1.092;2023-03-11T07:40:32;31.63;;;5.45;;
9783;SDS011;4931;44.874;-1.092;2023-03-11T07:42:58;39.97;;;5.72;;
9783;SDS011;4931;44.874;-1.092;2023-03-11T07:45:24;39.75;;;5.63;;
9783;SDS011;4931;44.874;-1.092;2023-03-11T07:47:49;39.05;;;5.75;;
9783;SDS011;4931;44.874;-1.092;2023-03-11T07:50:15;34.75;;;5.22;;
9783;SDS011;4931;44.874;-1.092;2023-03-11T07:52:41;37.95;;;5.40;;
9783;SDS011;4931;44.874;-1.092;2023-03-11T07:55:07;31.90;;;4.80;;
9783;SDS011;4931;44.874;-1.092;2023-03-11T07:57:33;34.05;;;4.80;;
9783;SDS011;4931;44.874;-1.092;2023-03-11T07:59:58;27.17;;;4.43;;
9783;SDS011;4931;44.874;-1.092;2023-03-11T08:02:24;30.10;;;4.28;;
9783;SDS011;4931;44.874;-1.092;2023-03-11T08:04:49;23.73;;;3.80;;
9783;SDS011;4931;44.874;-1.092;2023-03-11T08:07:15;28.33;;;4.15;;
9783;SDS011;4931;44.874;-1.092;2023-03-11T08:09:40;24.83;;;3.72;;
9783;SDS011;4931;44.874;-1.092;2023-03-11T08:12:06;23.92;;;4.07;;
9783;SDS011;4931;44.874;-1.092;2023-03-11T08:14:31;31.33;;;4.30;;
9783;SDS011;4931;44.874;-1.092;2023-03-11T08:16:57;32.75;;;4.90;;
9783;SDS011;4931;44.874;-1.092;2023-03-11T08:19:22;30.98;;;5.43;;
9783;SDS011;4931;44.874;-1.092;2023-03-11T08:21:48;35.85;;;5.78;;
9783;SDS011;4931;44.874;-1.092;2023-03-11T08:24:13;43.30;;;5.95;;
9783;SDS011;4931;44.874;-1.092;2023-03-11T08:26:39;40.17;;;6.15;;
9783;SDS011;4931;44.874;-1.092;2023-03-11T08:29:05;45.40;;;6.78;;
9783;SDS011;4931;44.874;-1.092;2023-03-11T08:31:31;49.00;;;6.90;;
9783;SDS011;4931;44.874;-1.092;2023-03-11T08:34:03;43.55;;;6.20;;
9783;SDS011;4931;44.874;-1.092;2023-03-11T08:36:30;43.88;;;5.85;;
9783;SDS011;4931;44.874;-1.092;2023-03-11T08:38:56;37.97;;;5.88;;
9783;SDS011;4931;44.874;-1.092;2023-03-11T08:41:22;36.58;;;5.65;;
9783;SDS011;4931;44.874;-1.092;2023-03-11T08:43:47;35.13;;;6.15;;
9783;SDS011;4931;44.874;-1.092;2023-03-11T08:46:24;40.97;;;6.03;;
9783;SDS011;4931;44.874;-1.092;2023-03-11T08:48:54;44.30;;;5.47;;
9783;SDS011;4931;44.874;-1.092;2023-03-11T08:51:21;37.40;;;5.68;;
9783;SDS011;4931;44.874;-1.092;2023-03-11T08:53:48;43.90;;;6.35;;
9783;SDS011;4931;44.874;-1.092;2023-03-11T08:56:14;33.60;;;4.90;;
9783;SDS011;4931;44.874;-1.092;2023-03-11T08:58:39;27.45;;;4.60;;
9783;SDS011;4931;44.874;-1.092;2023-03-11T09:01:05;32.47;;;4.65;;
9783;SDS011;4931;44.874;-1.092;2023-03-11T09:03:33;30.98;;;4.38;;
9783;SDS011;4931;44.874;-1.092;2023-03-11T09:06:00;26.15;;;4.82;;
9783;SDS011;4931;44.874;-1.092;2023-03-11T09:08:31;25.48;;;4.60;;
9783;SDS011;4931;44.874;-1.092;2023-03-11T09:10:56;30.02;;;4.63;;
9783;SDS011;4931;44.874;-1.092;2023-03-11T09:13:22;23.33;;;3.67;;
9783;SDS011;4931;44.874;-1.092;2023-03-11T09:15:48;31.17;;;4.82;;
9783;SDS011;4931;44.874;-1.092;2023-03-11T09:18:15;26.63;;;3.30;;
9783;SDS011;4931;44.874;-1.092;2023-03-11T09:20:42;29.33;;;4.30;;
9783;SDS011;4931;44.874;-1.092;2023-03-11T09:23:09;31.67;;;4.38;;
9783;SDS011;4931;44.874;-1.092;2023-03-11T09:25:36;30.02;;;4.88;;
9783;SDS011;4931;44.874;-1.092;2023-03-11T09:28:02;31.65;;;4.65;;
9783;SDS011;4931;44.874;-1.092;2023-03-11T09:30:27;29.08;;;4.50;;
9783;SDS011;4931;44.874;-1.092;2023-03-11T09:32:53;22.45;;;3.97;;
9783;SDS011;4931;44.874;-1.092;2023-03-11T09:35:18;25.67;;;3.70;;
9783;SDS011;4931;44.874;-1.092;2023-03-11T09:37:44;26.00;;;3.50;;
9783;SDS011;4931;44.874;-1.092;2023-03-11T09:40:14;18.33;;;3.08;;
9783;SDS011;4931;44.874;-1.092;2023-03-11T09:42:54;21.23;;;3.15;;
9783;SDS011;4931;44.874;-1.092;2023-03-11T09:45:33;20.50;;;3.67;;
9783;SDS011;4931;44.874;-1.092;2023-03-11T10:01:11;19.08;;;2.97;;
9783;SDS011;4931;44.874;-1.092;2023-03-11T10:03:41;16.35;;;2.67;;
9783;SDS011;4931;44.874;-1.092;2023-03-11T10:08:39;22.40;;;3.25;;
9783;SDS011;4931;44.874;-1.092;2023-03-11T10:13:58;22.52;;;3.05;;
9783;SDS011;4931;44.874;-1.092;2023-03-11T10:19:51;26.63;;;3.20;;
9783;SDS011;4931;44.874;-1.092;2023-03-11T10:25:15;29.73;;;3.60;;
9783;SDS011;4931;44.874;-1.092;2023-03-11T10:27:48;24.65;;;3.38;;
9783;SDS011;4931;44.874;-1.092;2023-03-11T10:33:34;31.15;;;3.65;;
9783;SDS011;4931;44.874;-1.092;2023-03-11T10:36:13;20.50;;;3.08;;
9783;SDS011;4931;44.874;-1.092;2023-03-11T10:38:44;23.77;;;3.42;;
9783;SDS011;4931;44.874;-1.092;2023-03-11T10:41:59;23.08;;;3.30;;
9783;SDS011;4931;44.874;-1.092;2023-03-11T10:44:09;29.35;;;3.83;;
9783;SDS011;4931;44.874;-1.092;2023-03-11T10:46:39;22.80;;;3.55;;
9783;SDS011;4931;44.874;-1.092;2023-03-11T10:49:09;27.42;;;5.05;;
9783;SDS011;4931;44.874;-1.092;2023-03-11T10:51:38;25.17;;;3.50;;
9783;SDS011;4931;44.874;-1.092;2023-03-11T10:54:05;31.70;;;3.97;;
9783;SDS011;4931;44.874;-1.092;2023-03-11T10:56:32;31.27;;;4.18;;
9783;SDS011;4931;44.874;-1.092;2023-03-11T11:01:28;33.70;;;4.43;;
9783;SDS011;4931;44.874;-1.092;2023-03-11T11:03:55;42.13;;;4.65;;
9783;SDS011;4931;44.874;-1.092;2023-03-11T11:11:38;50.45;;;5.88;;
9783;SDS011;4931;44.874;-1.092;2023-03-11T11:14:04;38.95;;;5.38;;
9783;SDS011;4931;44.874;-1.092;2023-03-11T11:16:30;42.75;;;5.43;;
9783;SDS011;4931;44.874;-1.092;2023-03-11T11:19:02;43.85;;;5.55;;
9783;SDS011;4931;44.874;-1.092;2023-03-11T11:21:39;47.38;;;6.50;;
9783;SDS011;4931;44.874;-1.092;2023-03-11T11:24:14;57.50;;;7.38;;
9783;SDS011;4931;44.874;-1.092;2023-03-11T11:29:31;48.05;;;6.05;;
9783;SDS011;4931;44.874;-1.092;2023-03-11T11:32:16;44.65;;;4.70;;
9783;SDS011;4931;44.874;-1.092;2023-03-11T11:34:55;44.03;;;5.05;;
9783;SDS011;4931;44.874;-1.092;2023-03-11T11:37:24;51.25;;;6.07;;
9783;SDS011;4931;44.874;-1.092;2023-03-11T11:39:57;55.13;;;6.53;;
9783;SDS011;4931;44.874;-1.092;2023-03-11T11:42:26;58.83;;;6.40;;
9783;SDS011;4931;44.874;-1.092;2023-03-11T11:44:56;41.05;;;6.00;;
9783;SDS011;4931;44.874;-1.092;2023-03-11T11:47:29;46.03;;;6.60;;
9783;SDS011;4931;44.874;-1.092;2023-03-11T11:49:59;44.30;;;5.82;;
9783;SDS011;4931;44.874;-1.092;2023-03-11T11:52:30;45.20;;;6.88;;
9783;SDS011;4931;44.874;-1.092;2023-03-11T11:55:12;54.85;;;7.18;;
9783;SDS011;4931;44.874;-1.092;2023-03-11T11:57:44;54.28;;;6.28;;
9783;SDS011;4931;44.874;-1.092;2023-03-11T12:00:20;54.58;;;5.45;;
9783;SDS011;4931;44.874;-1.092;2023-03-11T12:02:56;35.50;;;5.53;;
9783;SDS011;4931;44.874;-1.092;2023-03-11T12:05:42;45.58;;;6.18;;
9783;SDS011;4931;44.874;-1.092;2023-03-11T12:08:18;41.55;;;5.53;;
9783;SDS011;4931;44.874;-1.092;2023-03-11T12:10:54;44.20;;;5.85;;
9783;SDS011;4931;44.874;-1.092;2023-03-11T12:16:08;48.50;;;6.72;;
9783;SDS011;4931;44.874;-1.092;2023-03-11T12:29:56;45.30;;;5.20;;
9783;SDS011;4931;44.874;-1.092;2023-03-11T12:32:33;44.95;;;6.10;;
9783;SDS011;4931;44.874;-1.092;2023-03-11T12:35:14;40.15;;;5.60;;
9783;SDS011;4931;44.874;-1.092;2023-03-11T12:43:58;40.70;;;5.88;;
9783;SDS011;4931;44.874;-1.092;2023-03-11T12:46:12;48.53;;;6.55;;
9783;SDS011;4931;44.874;-1.092;2023-03-11T12:51:38;56.15;;;6.32;;
9783;SDS011;4931;44.874;-1.092;2023-03-11T13:05:29;47.08;;;5.70;;
9783;SDS011;4931;44.874;-1.092;2023-03-11T13:08:13;48.72;;;7.15;;
9783;SDS011;4931;44.874;-1.092;2023-03-11T13:10:50;56.08;;;6.97;;
9783;SDS011;4931;44.874;-1.092;2023-03-11T13:13:21;42.17;;;5.57;;
9783;SDS011;4931;44.874;-1.092;2023-03-11T13:15:51;44.55;;;6.50;;
9783;SDS011;4931;44.874;-1.092;2023-03-11T13:21:00;49.53;;;6.82;;
9783;SDS011;4931;44.874;-1.092;2023-03-11T13:23:37;54.72;;;6.47;;
9783;SDS011;4931;44.874;-1.092;2023-03-11T13:33:55;45.45;;;6.57;;
9783;SDS011;4931;44.874;-1.092;2023-03-11T13:39:21;52.33;;;7.15;;
9783;SDS011;4931;44.874;-1.092;2023-03-11T13:41:58;47.20;;;7.45;;
9783;SDS011;4931;44.874;-1.092;2023-03-11T13:44:28;49.60;;;7.15;;
9783;SDS011;4931;44.874;-1.092;2023-03-11T13:47:16;53.75;;;6.47;;
9783;SDS011;4931;44.874;-1.092;2023-03-11T13:52:34;54.03;;;6.30;;
9783;SDS011;4931;44.874;-1.092;2023-03-11T13:55:08;52.78;;;7.13;;
9783;SDS011;4931;44.874;-1.092;2023-03-11T13:57:52;49.47;;;6.10;;
9783;SDS011;4931;44.874;-1.092;2023-03-11T14:00:25;55.33;;;6.88;;
9783;SDS011;4931;44.874;-1.092;2023-03-11T14:05:21;47.72;;;6.80;;
9783;SDS011;4931;44.874;-1.092;2023-03-11T14:13:42;47.55;;;6.20;;
9783;SDS011;4931;44.874;-1.092;2023-03-11T14:18:41;44.78;;;6.68;;
9783;SDS011;4931;44.874;-1.092;2023-03-11T14:21:16;46.05;;;7.38;;
9783;SDS011;4931;44.874;-1.092;2023-03-11T14:23:47;43.28;;;6.20;;
9783;SDS011;4931;44.874;-1.092;2023-03-11T14:28:48;48.63;;;6.03;;
9783;SDS011;4931;44.874;-1.092;2023-03-11T14:31:49;50.03;;;6.07;;
9783;SDS011;4931;44.874;-1.092;2023-03-11T14:44:27;55.05;;;7.43;;
9783;SDS011;4931;44.874;-1.092;2023-03-11T14:47:00;50.50;;;6.47;;
9783;SDS011;4931;44.874;-1.092;2023-03-11T14:49:32;39.42;;;6.00;;
9783;SDS011;4931;44.874;-1.092;2023-03-11T14:51:59;49.55;;;6.90;;
9783;SDS011;4931;44.874;-1.092;2023-03-11T14:54:28;44.90;;;7.45;;
9783;SDS011;4931;44.874;-1.092;2023-03-11T14:57:03;42.50;;;6.47;;
9783;SDS011;4931;44.874;-1.092;2023-03-11T14:59:31;47.17;;;6.85;;
9783;SDS011;4931;44.874;-1.092;2023-03-11T15:04:51;50.42;;;6.28;;
9783;SDS011;4931;44.874;-1.092;2023-03-11T15:07:19;38.50;;;6.15;;
9783;SDS011;4931;44.874;-1.092;2023-03-11T15:09:45;54.13;;;6.78;;
9783;SDS011;4931;44.874;-1.092;2023-03-11T15:15:01;57.33;;;7.40;;
9783;SDS011;4931;44.874;-1.092;2023-03-11T15:17:27;42.55;;;5.97;;
9783;SDS011;4931;44.874;-1.092;2023-03-11T15:19:56;52.92;;;6.35;;
9783;SDS011;4931;44.874;-1.092;2023-03-11T15:24:57;43.85;;;6.35;;
9783;SDS011;4931;44.874;-1.092;2023-03-11T15:29:53;40.80;;;6.15;;
9783;SDS011;4931;44.874;-1.092;2023-03-11T15:34:59;39.58;;;6.18;;
9783;SDS011;4931;44.874;-1.092;2023-03-11T15:37:26;42.13;;;6.15;;
9783;SDS011;4931;44.874;-1.092;2023-03-11T15:39:55;33.65;;;5.75;;
9783;SDS011;4931;44.874;-1.092;2023-03-11T15:42:23;43.35;;;5.47;;
9783;SDS011;4931;44.874;-1.092;2023-03-11T15:47:37;33.85;;;5.20;;
9783;SDS011;4931;44.874;-1.092;2023-03-11T15:50:23;47.92;;;6.35;;
9783;SDS011;4931;44.874;-1.092;2023-03-11T15:52:55;47.40;;;6.47;;
9783;SDS011;4931;44.874;-1.092;2023-03-11T15:55:22;31.53;;;4.90;;
9783;SDS011;4931;44.874;-1.092;2023-03-11T15:57:49;45.08;;;6.38;;
9783;SDS011;4931;44.874;-1.092;2023-03-11T16:00:22;57.90;;;7.82;;
9783;SDS011;4931;44.874;-1.092;2023-03-11T16:02:48;55.47;;;8.05;;
9783;SDS011;4931;44.874;-1.092;2023-03-11T16:05:19;62.17;;;8.32;;
9783;SDS011;4931;44.874;-1.092;2023-03-11T16:07:47;56.60;;;9.20;;
9783;SDS011;4931;44.874;-1.092;2023-03-11T16:10:14;58.50;;;8.00;;
9783;SDS011;4931;44.874;-1.092;2023-03-11T16:12:41;56.30;;;7.80;;
9783;SDS011;4931;44.874;-1.092;2023-03-11T16:15:28;53.95;;;8.15;;
9783;SDS011;4931;44.874;-1.092;2023-03-11T16:17:54;61.95;;;8.07;;
9783;SDS011;4931;44.874;-1.092;2023-03-11T16:20:22;59.85;;;7.40;;
9783;SDS011;4931;44.874;-1.092;2023-03-11T16:22:51;60.30;;;8.38;;
9783;SDS011;4931;44.874;-1.092;2023-03-11T16:27:52;52.33;;;7.72;;
9783;SDS011;4931;44.874;-1.092;2023-03-11T16:30:20;57.72;;;8.10;;
9783;SDS011;4931;44.874;-1.092;2023-03-11T16:32:47;53.40;;;8.32;;
9783;SDS011;4931;44.874;-1.092;2023-03-11T16:35:12;55.60;;;8.73;;
9783;SDS011;4931;44.874;-1.092;2023-03-11T16:37:38;93.75;;;27.00;;
9783;SDS011;4931;44.874;-1.092;2023-03-11T16:40:06;82.05;;;19.27;;
9783;SDS011;4931;44.874;-1.092;2023-03-11T16:42:32;64.38;;;11.07;;
9783;SDS011;4931;44.874;-1.092;2023-03-11T16:44:57;62.85;;;11.05;;
9783;SDS011;4931;44.874;-1.092;2023-03-11T16:47:23;63.45;;;10.63;;
9783;SDS011;4931;44.874;-1.092;2023-03-11T16:49:48;76.63;;;10.95;;
9783;SDS011;4931;44.874;-1.092;2023-03-11T16:52:18;57.25;;;10.60;;
9783;SDS011;4931;44.874;-1.092;2023-03-11T16:54:45;61.00;;;12.13;;
9783;SDS011;4931;44.874;-1.092;2023-03-11T16:57:11;71.03;;;12.95;;
9783;SDS011;4931;44.874;-1.092;2023-03-11T16:59:37;61.13;;;10.38;;
9783;SDS011;4931;44.874;-1.092;2023-03-11T17:02:03;52.85;;;14.15;;
9783;SDS011;4931;44.874;-1.092;2023-03-11T17:04:28;55.40;;;10.43;;
9783;SDS011;4931;44.874;-1.092;2023-03-11T17:06:54;52.28;;;8.38;;